Latest Coastal Weather Observations for Lockhart River

IDQ60701

Issued at 2:25 am EST Tuesday 29 July 2014 (issued every 10 minutes, with the page automatically refreshed every 10 minutes)

About coastal observations | Map of coastal stations | Coastal observations for QLD | Marine services | Other Formats
Station Details ID: 028008 Name: LOCKHART RIVER AIRPORT Lat: -12.79 Lon: 143.30 Height: 18.5 m
Data from the previous 72 hours. | See also: Recent months at Lockhart River
Date/Time
EST
Temp

°C
Wind Pressure Rain
since 9am
mm
Weather Cloud Vis
km
Sea
Height
m
Swell
Dir
 
Speed
knots
Gust
knots
hPa Trend Height
m
Period
s
Dir
29/02:00am 22.0 ESE 10 13 1015.7 - 0.8 - Partly cloudy - - - - -
29/01:52am 21.9 ESE 9 13 1015.8 - 0.8 - Partly cloudy - - - - -
29/01:30am 21.9 ESE 10 15 1015.9 - 0.4 - Partly cloudy - - - - -
29/01:00am 21.9 ESE 11 16 1016.0 - 0.4 - Partly cloudy - - - - -
29/12:30am 23.6 SE 13 19 1016.1 - 0.0 - Partly cloudy - - - - -
29/12:00am 23.3 ESE 11 15 1016.4 - 0.0 - Partly cloudy - - - - -
 
Date/Time
EST
Temp

°C
Wind Pressure Rain
since 9am
mm
Weather Cloud Vis
km
Sea
Height
m
Swell
Dir
 
Speed
knots
Gust
knots
hPa Trend Height
m
Period
s
Dir
28/11:30pm 23.2 SE 11 18 1016.6 - 0.0 - Partly cloudy - - - - -
28/11:00pm 23.2 SE 11 15 1016.5 - 0.0 - Partly cloudy - - - - -
28/10:30pm 23.4 SE 12 20 1016.6 - 0.0 - Partly cloudy - - - - -
28/10:00pm 23.5 SE 12 17 1016.7 - 0.0 - Partly cloudy - - - - -
28/09:30pm 23.6 ESE 12 20 1016.7 - 0.0 - Partly cloudy - - - - -
28/09:00pm 23.4 ESE 12 17 1016.6 - 0.0 - Partly cloudy - - - - -
28/08:30pm 23.4 ESE 12 17 1016.6 - 0.0 - Partly cloudy - - - - -
28/08:00pm 23.0 ESE 10 15 1016.2 - 0.0 - Partly cloudy - - - - -
28/07:30pm 23.6 ESE 12 17 1015.9 - 0.0 - Partly cloudy - - - - -
28/07:00pm 23.3 SE 11 15 1015.8 - 0.0 - Partly cloudy - - - - -
28/06:30pm 23.4 ESE 11 19 1015.6 - 0.0 - Partly cloudy - - - - -
28/06:10pm 23.3 SE 11 15 1015.5 - 0.0 - Partly cloudy - - - - -
28/06:00pm 23.4 SE 11 15 1015.4 - 0.0 - Partly cloudy - - - - -
28/05:46pm 23.3 SE 11 16 1015.4 - 0.0 - Partly cloudy - - - - -
28/05:30pm 24.1 SE 13 18 1015.3 - 0.0 - Partly cloudy - - - - -
28/05:00pm 24.5 ESE 14 22 1015.1 - 0.0 - Partly cloudy - - - - -
28/04:30pm 24.4 ESE 14 23 1014.8 - 0.0 - Partly cloudy - - - - -
28/04:00pm 25.3 ESE 16 20 1014.7 - 0.0 - Partly cloudy - - - - -
28/03:30pm 24.7 ESE 16 23 1014.7 - 0.0 - Partly cloudy - - - - -
28/03:02pm 25.6 ESE 15 26 1014.8 - 0.0 - Partly cloudy - - - - -
28/03:00pm 25.5 ESE 15 24 1014.7 - 0.0 Fine Mostly cloudy 13 - - - -
28/02:57pm 25.8 ESE 16 26 1014.8 - 0.0 - Partly cloudy - - - - -
28/02:30pm 26.1 ESE 14 22 1015.0 - 0.0 - Partly cloudy - - - - -
28/02:00pm 25.8 ESE 12 18 1015.5 - 0.0 - Partly cloudy - - - - -
28/01:30pm 25.9 ESE 15 23 1015.8 - 0.0 - Partly cloudy - - - - -
28/01:00pm 26.6 ESE 15 21 1016.1 - 0.0 - Partly cloudy - - - - -
28/12:30pm 25.5 ESE 17 23 1016.5 - 0.0 - Partly cloudy - - - - -
28/12:00pm 25.4 ESE 15 21 1016.6 - 0.0 - Partly cloudy - - - - -
28/11:30am 26.0 ESE 17 27 1016.9 - 0.0 - Partly cloudy - - - - -
28/11:00am 26.1 ESE 16 28 1017.2 - 0.0 - Partly cloudy - - - - -
28/10:52am 25.9 ESE 16 28 1017.2 - 0.0 - Partly cloudy - - - - -
28/10:30am 26.3 ESE 15 22 1017.2 - 0.0 - Partly cloudy - - - - -
28/10:00am 24.7 ESE 14 21 1017.3 - 0.0 - Partly cloudy - - - - -
28/09:30am 24.5 ESE 15 22 1017.3 - 0.0 - Partly cloudy - - - - -
28/09:00am 24.3 ESE 12 20 1017.1 - 2.4 Fine Cloudy 12 - - - -
28/08:30am 24.3 SE 15 22 1016.8 - 2.4 - Partly cloudy - - - - -
28/08:24am 24.3 SE 15 21 1016.7 - 2.4 - Partly cloudy - - - - -
28/08:05am 23.6 ESE 11 15 1016.5 - 2.4 - Partly cloudy - - - - -
28/08:00am 23.5 ESE 11 14 1016.5 - 2.4 - Cloudy - - - - -
28/07:30am 23.0 SE 11 15 1016.0 - 2.4 - Partly cloudy - - - - -
28/07:00am 23.1 ESE 10 16 1015.8 - 2.4 - Partly cloudy - - - - -
28/06:30am 23.1 ESE 13 19 1015.6 - 2.4 - Partly cloudy - - - - -
28/06:00am 23.2 ESE 13 19 1015.3 - 2.4 - Partly cloudy - - - - -
28/05:30am 23.1 SE 12 18 1015.1 - 2.4 - Partly cloudy - - - - -
28/05:00am 23.0 SE 13 18 1015.0 - 2.4 - Partly cloudy - - - - -
28/04:30am 23.1 ESE 12 18 1014.9 - 2.4 - Partly cloudy - - - - -
28/04:00am 23.2 SE 13 21 1014.7 - 2.4 - Partly cloudy - - - - -
28/03:30am 23.0 ESE 13 19 1014.7 - 2.4 - Partly cloudy - - - - -
28/03:00am 22.9 SE 13 20 1014.8 - 2.4 - Partly cloudy - - - - -
28/02:30am 22.9 SE 12 17 1015.2 - 2.4 - Partly cloudy - - - - -
28/02:00am 22.8 SE 13 20 1015.4 - 2.4 - Partly cloudy - - - - -
28/01:30am 22.9 SE 11 15 1015.8 - 2.4 - Partly cloudy - - - - -
28/01:00am 23.1 SE 12 19 1016.1 - 2.4 - Partly cloudy - - - - -
28/12:30am 22.9 SE 11 16 1016.7 - 2.4 - Partly cloudy - - - - -
28/12:00am 23.1 SE 12 17 1017.0 - 2.4 - Partly cloudy - - - - -
 
Date/Time
EST
Temp

°C
Wind Pressure Rain
since 9am
mm
Weather Cloud Vis
km
Sea
Height
m
Swell
Dir
 
Speed
knots
Gust
knots
hPa Trend Height
m
Period
s
Dir
27/11:30pm 23.2 SE 13 18 1017.5 - 2.4 - Partly cloudy - - - - -
27/11:00pm 23.5 SE 15 21 1017.6 - 2.4 - Partly cloudy - - - - -
27/10:30pm 23.3 SE 12 19 1017.8 - 2.4 - Partly cloudy - - - - -
27/10:00pm 23.5 SE 15 22 1018.0 - 2.4 - Partly cloudy - - - - -
27/09:30pm 23.6 SE 13 18 1017.8 - 2.4 - Partly cloudy - - - - -
27/09:00pm 23.3 SE 12 19 1017.7 - 2.4 - Partly cloudy - - - - -
27/08:30pm 23.3 SE 12 17 1017.7 - 2.4 - Partly cloudy - - - - -
27/08:00pm 23.0 SE 10 14 1017.5 - 2.4 - Partly cloudy - - - - -
27/07:30pm 23.4 SE 12 19 1017.1 - 2.4 - Partly cloudy - - - - -
27/07:00pm 23.4 SE 12 16 1016.8 - 2.4 - Partly cloudy - - - - -
27/06:30pm 23.6 SE 13 19 1016.5 - 2.4 - Partly cloudy - - - - -
27/06:00pm 24.1 SE 16 21 1016.0 - 2.4 - Partly cloudy - - - - -
27/05:30pm 24.4 SE 14 19 1015.8 - 2.4 - Partly cloudy - - - - -
27/05:00pm 24.9 SE 17 22 1015.4 - 2.4 - Cloudy - - - - -
27/04:30pm 24.7 SE 15 20 1015.3 - 2.4 - Partly cloudy - - - - -
27/04:00pm 23.8 SE 11 18 1015.2 - 2.4 - Partly cloudy - - - - -
27/03:30pm 25.4 SE 14 21 1015.0 - 2.4 - Partly cloudy - - - - -
27/03:00pm 25.5 SE 14 18 1015.1 - 2.4 Fine Mostly cloudy 12 - - - -
27/02:30pm 25.7 SE 15 21 1015.4 - 2.4 - Partly cloudy - - - - -
27/02:00pm 26.1 SE 13 18 1015.4 - 2.4 - Partly cloudy - - - - -
27/01:30pm 26.2 ESE 14 18 1015.8 - 2.4 - Partly cloudy - - - - -
27/01:00pm 25.9 SE 15 20 1016.1 - 2.4 - Partly cloudy - - - - -
27/12:30pm 24.7 SE 13 21 1016.5 - 2.4 - Partly cloudy - - - - -
27/12:21pm 24.8 SE 14 20 1016.6 - 2.4 - Partly cloudy - - - - -
27/12:10pm 24.6 SE 13 18 1016.9 - 2.4 - Partly cloudy - - - - -
27/12:00pm 23.8 SSE 12 19 1016.9 - 2.4 - Partly cloudy - - - - -
27/11:39am 23.5 SE 9 15 1017.4 - 2.4 - Partly cloudy - - - - -
27/11:30am 23.2 SE 11 16 1017.5 - 2.4 - Partly cloudy - - - - -
27/11:13am 23.1 SE 10 17 1017.6 - 2.4 - Partly cloudy - - - - -
27/11:00am 23.4 SE 8 11 1017.5 - 2.4 - Partly cloudy - - - - -
27/10:53am 23.4 SE 8 11 1017.6 - 2.4 - Partly cloudy - - - - -
27/10:30am 22.9 SSE 9 14 1017.8 - 2.4 - Partly cloudy - - - - -
27/10:00am 22.1 SE 14 18 1018.0 - 2.4 - Partly cloudy - - - - -
27/09:30am 22.3 SSE 7 9 1018.0 - 0.2 - Partly cloudy - - - - -
27/09:00am 22.2 SSE 7 10 1017.6 - 1.6 Distant precip. Cloudy 8 - - - -
27/08:30am 21.7 SSE 6 8 1017.4 - 1.2 - Partly cloudy - - - - -
27/08:00am 21.5 SSE 5 7 1017.1 - 1.0 - Partly cloudy - - - - -
27/07:30am 21.4 S 6 8 1016.8 - 0.8 - Partly cloudy - - - - -
27/07:07am 21.4 S 4 6 1016.6 - 0.8 - Partly cloudy - - - - -
27/07:06am 21.5 S 4 6 1016.6 - 0.8 - Partly cloudy - - - - -
27/07:00am 21.4 S 4 6 1016.6 - 0.8 - Partly cloudy - - - - -
27/06:30am 21.4 SSE 5 8 1016.5 - 0.8 - Partly cloudy - - - - -
27/06:00am 21.6 S 4 6 1016.3 - 0.8 - Partly cloudy - - - - -
27/05:30am 21.6 S 6 7 1016.3 - 0.8 - Cloudy - - - - -
27/05:00am 21.6 SE 5 8 1016.2 - 0.8 - Partly cloudy - - - - -
27/04:54am 21.7 SSE 5 8 1016.2 - 0.8 - Partly cloudy - - - - -
27/04:30am 21.7 SSE 5 7 1016.0 - 0.4 - Partly cloudy - - - - -
27/04:01am 21.7 SSE 6 8 1015.9 - 0.4 - Partly cloudy - - - - -
27/04:00am 21.7 SSE 6 8 1015.8 - 0.4 - Partly cloudy - - - - -
27/03:30am 21.8 SSE 8 10 1016.1 - 0.4 - Partly cloudy - - - - -
27/03:22am 21.8 SSE 9 12 1016.1 - 0.0 - Partly cloudy - - - - -
27/03:00am 22.1 SSE 8 10 1016.1 - 0.0 - Partly cloudy - - - - -
27/02:30am 22.1 SSE 7 9 1016.4 - 0.0 - Partly cloudy - - - - -
27/02:12am 22.2 SE 10 14 1016.7 - 0.0 - Partly cloudy - - - - -
27/02:00am 22.4 SE 11 17 1017.0 - 0.0 - Partly cloudy - - - - -
27/01:58am 22.4 SE 11 17 1017.0 - 0.0 - Partly cloudy - - - - -
27/01:30am 23.2 SE 12 15 1017.2 - 0.0 - Partly cloudy - - - - -
27/01:00am 23.5 SE 11 17 1017.5 - 0.0 - Partly cloudy - - - - -
27/12:30am 23.6 SE 12 17 1017.7 - 0.0 - Partly cloudy - - - - -
27/12:00am 23.6 SE 13 19 1017.8 - 0.0 - Partly cloudy - - - - -
 
Date/Time
EST
Temp

°C
Wind Pressure Rain
since 9am
mm
Weather Cloud Vis
km
Sea
Height
m
Swell
Dir
 
Speed
knots
Gust
knots
hPa Trend Height
m
Period
s
Dir
26/11:30pm 23.6 SE 13 16 1018.3 - 0.0 - Partly cloudy - - - - -
26/11:00pm 23.6 SE 11 16 1018.4 - 0.0 - Partly cloudy - - - - -
26/10:30pm 23.8 SE 14 21 1018.6 - 0.0 - Partly cloudy - - - - -
26/10:00pm 23.8 SE 13 23 1018.4 - 0.0 - Cloudy - - - - -
26/09:30pm 23.6 SE 12 16 1018.4 - 0.0 - Partly cloudy - - - - -
26/09:00pm 23.8 ESE 12 17 1018.3 - 0.0 - Cloudy - - - - -
26/08:30pm 23.9 SE 12 19 1018.4 - 0.0 - Partly cloudy - - - - -
26/08:00pm 24.0 ESE 15 21 1018.2 - 0.0 - Partly cloudy - - - - -
26/07:30pm 24.0 SE 14 19 1018.0 - 0.0 - Partly cloudy - - - - -
26/07:18pm 24.0 SE 15 25 1018.0 - 0.0 - Partly cloudy - - - - -
26/07:00pm 24.0 SE 13 20 1018.0 - 0.0 - Partly cloudy - - - - -
26/06:30pm 24.2 SE 13 17 1017.8 - 0.0 - Partly cloudy - - - - -
26/06:00pm 23.9 SE 13 19 1017.5 - 0.0 - Partly cloudy - - - - -
26/05:30pm 24.1 SE 14 23 1017.5 - 0.0 - Partly cloudy - - - - -
26/05:00pm 24.4 ESE 15 26 1017.2 - 0.0 - Partly cloudy - - - - -
26/04:56pm 24.6 SE 16 26 1017.2 - 0.0 - Partly cloudy - - - - -
26/04:30pm 25.0 SE 16 22 1017.1 - 0.0 - Partly cloudy - - - - -
26/04:00pm 25.3 ESE 17 24 1016.9 - 0.0 - Partly cloudy - - - - -
26/03:33pm 25.6 ESE 15 25 1016.6 - 0.0 - Partly cloudy - - - - -
26/03:30pm 25.6 ESE 15 24 1016.5 - 0.0 - Partly cloudy - - - - -
26/03:05pm 25.8 ESE 17 28 1016.4 - 0.0 - Partly cloudy - - - - -
26/03:00pm 26.4 ESE 17 24 1016.2 - 0.0 Fine Mostly cloudy 20 - - - -
26/02:30pm 25.7 SE 17 26 1016.4 - 0.0 - Partly cloudy - - - - -
26/02:25pm 26.8 SE 16 26 1016.3 - 0.0 - Partly cloudy - - - - -
26/02:00pm 25.9 ESE 14 21 1016.6 - 0.0 - Partly cloudy - - - - -
26/01:30pm 26.4 SE 19 24 1017.0 - 0.0 - Partly cloudy - - - - -
26/01:00pm 26.2 SE 17 24 1017.5 - 0.0 - Partly cloudy - - - - -
26/12:30pm 25.6 ESE 17 23 1018.0 - 0.0 - Partly cloudy - - - - -
26/12:00pm 26.4 ESE 16 21 1018.3 - 0.0 - Partly cloudy - - - - -
26/11:30am 25.8 SE 16 23 1018.9 - 0.0 - Partly cloudy - - - - -
26/11:00am 25.8 ESE 15 23 1019.0 - 0.0 - Partly cloudy - - - - -
26/10:30am 26.1 SE 14 20 1018.9 - 0.0 - Partly cloudy - - - - -
26/10:00am 25.4 SE 16 20 1018.8 - 0.0 - Partly cloudy - - - - -
26/09:30am 25.0 SE 16 23 1018.6 - 0.0 - Partly cloudy - - - - -
26/09:00am 24.5 SE 14 20 1018.3 - 0.2 Fine Mostly cloudy 25 - - - -
26/08:30am 24.3 SE 12 18 1018.1 - 0.2 - Partly cloudy - - - - -
26/08:02am 23.6 SE 11 16 1017.9 - 0.2 - Cloudy - - - - -
26/08:00am 23.4 SE 11 13 1017.9 - 0.2 - Cloudy - - - - -
26/07:30am 22.8 SE 7 10 1018.1 - 0.2 - Partly cloudy - - - - -
26/07:09am 22.2 SE 6 9 1018.1 - 0.2 - Partly cloudy - - - - -
26/07:00am 22.2 SE 6 9 1018.0 - 0.2 - Partly cloudy - - - - -
26/06:30am 22.3 SE 9 12 1017.7 - 0.2 - Partly cloudy - - - - -
26/06:00am 22.6 SE 10 15 1017.3 - 0.2 - Partly cloudy - - - - -
26/05:30am 22.7 SE 9 13 1017.2 - 0.2 - Partly cloudy - - - - -
26/05:07am 22.8 SE 9 13 1017.1 - 0.2 - Partly cloudy - - - - -
26/05:03am 22.8 SE 9 12 1017.1 - 0.2 - Partly cloudy - - - - -
26/05:00am 22.8 SE 9 13 1017.1 - 0.2 - Partly cloudy - - - - -
26/04:30am 22.8 SE 10 13 1017.2 - 0.2 - Partly cloudy - - - - -
26/04:00am 22.9 SE 9 13 1017.1 - 0.2 - Partly cloudy - - - - -
26/03:52am 23.0 SE 10 15 1017.0 - 0.2 - Partly cloudy - - - - -
26/03:30am 23.0 SE 10 13 1017.1 - 0.2 - Partly cloudy - - - - -
26/03:00am 22.8 SE 9 13 1016.9 - 0.2 - Partly cloudy - - - - -
26/02:30am 22.7 SE 8 10 1017.0 - 0.2 - Partly cloudy - - - - -

Other Formats:

Comma delimited format used in spreadsheet applications
http://www.bom.gov.au/fwo/IDQ60701/IDQ60701.94186.axf

JavaScript Object Notation format (JSON) in row-major order
http://www.bom.gov.au/fwo/IDQ60701/IDQ60701.94186.json